Página principal
METAR-TAF:

METAR-TAF

Aeroportos :

Gabès, Tunísia

latitude: 33-53N, longitude: 010-06E, altura: 4 m

Observação actual do tempo

O boletim foi feito há 10 minutos, às 13:00 UTC
Vento 6 kt de norte, variando entre noroeste e nordeste
Temperatura 32°C
Humidade 36%
Pressão 1018 hPa
Visibilidade 10 km ou mais
Nuvens dispersasa uma altura de 2000 ft

METAR: DTTG 241300Z 36006KT 310V040 9999 SCT020 32/15 Q1018 NOSIG

Hora: 14:10 (13:10 UTC)

Previsão

O boletim foi feito há 30 minutos, às 12:40 UTC
Previsão válida de 24 às 13 UTC a 24 às 22 UTC
Vento 5 kt de nor-noroeste
Visibilidade 10 km ou mais
Nuvens dispersasa uma altura de 2000 ft
Tornando-se
de 24 às 13 UTC a 24 às 15 UTC
Vento 10 kt de este

TAF: DTTG 241240Z 2413/2422 34005KT 9999 SCT020 BECMG 2413/2415 10010KT

Observações e previsões do tempo de mais de 4000 aeroportos (mensagens METAR e TAF).

As estações disponíveis são os pontos amarelos e vermelhos sobre o mapa.

Mova o rato sobre o mapa para ver o nome da estação.

Depois clique no ponto para visualizar as observações e previsões meteorológicas.

Para alterar o mapa : clique nos botões verdes com uma cruz preta para aumentar o zoom; no botão verde com uma pitada de zoom; ou nas setas verdes para mapas adjacentes.


METAR-TAF: